createdAt,value
2023-03-22T00:01:41.754Z,17.45
2023-03-22T00:04:47.117Z,18.23
2023-03-22T00:07:54.313Z,18.65
2023-03-22T00:10:58.365Z,18.63
2023-03-22T00:14:02.133Z,20.08
2023-03-22T00:17:05.928Z,19.67
2023-03-22T00:20:12.938Z,21.10
2023-03-22T00:23:16.975Z,20.48
2023-03-22T00:29:24.476Z,20.50
2023-03-22T00:32:28.459Z,21.92
2023-03-22T00:35:34.287Z,20.77
2023-03-22T00:38:42.979Z,20.45
2023-03-22T00:41:47.885Z,21.52
2023-03-22T00:44:51.988Z,21.33
2023-03-22T00:47:55.891Z,19.02
2023-03-22T00:51:01.569Z,18.65
2023-03-22T00:54:05.812Z,19.67
2023-03-22T01:00:16.279Z,17.23
2023-03-22T01:03:22.015Z,16.70
2023-03-22T01:06:27.961Z,18.25
2023-03-22T01:09:34.588Z,18.25
2023-03-22T01:12:38.441Z,16.13
2023-03-22T01:15:43.493Z,15.15
2023-03-22T01:18:47.422Z,17.27
2023-03-22T01:21:53.045Z,16.38
2023-03-22T01:24:56.837Z,16.25
2023-03-22T01:28:02.937Z,17.90
2023-03-22T01:31:07.007Z,16.92
2023-03-22T01:37:16.820Z,15.07
2023-03-22T01:40:20.516Z,17.55
2023-03-22T01:43:24.119Z,17.80
2023-03-22T01:46:27.814Z,18.08
2023-03-22T01:49:35.923Z,19.17
2023-03-22T01:52:42.851Z,19.63
2023-03-22T01:55:49.095Z,19.20
2023-03-22T01:58:55.628Z,21.10
2023-03-22T02:02:02.965Z,19.60
2023-03-22T02:05:07.869Z,19.48
2023-03-22T02:08:15.456Z,18.58
2023-03-22T02:11:27.197Z,20.77
2023-03-22T02:14:59.872Z,22.52
2023-03-22T02:18:23.112Z,19.40
2023-03-22T02:22:14.745Z,20.10
2023-03-22T02:26:09.960Z,20.10
2023-03-22T02:29:23.353Z,20.45
2023-03-22T02:33:10.942Z,20.98
2023-03-22T02:37:19.961Z,19.48
2023-03-22T02:40:35.524Z,19.75
2023-03-22T02:43:51.345Z,19.80
2023-03-22T02:47:04.094Z,20.65
2023-03-22T02:50:15.348Z,18.52
2023-03-22T02:53:25.488Z,19.42
2023-03-22T02:56:39.392Z,19.63
2023-03-22T02:59:46.477Z,21.17
2023-03-22T03:02:55.700Z,21.15
2023-03-22T03:06:08.583Z,20.10
2023-03-22T03:09:14.720Z,20.75
2023-03-22T03:12:25.009Z,20.40
2023-03-22T03:15:29.578Z,21.10
2023-03-22T03:18:45.853Z,21.02
2023-03-22T03:22:01.814Z,20.33
2023-03-22T03:25:18.942Z,20.20
2023-03-22T03:28:38.442Z,20.77
2023-03-22T03:31:51.819Z,21.20
2023-03-22T03:35:03.727Z,22.13
2023-03-22T03:38:12.119Z,21.20
2023-03-22T03:41:19.787Z,21.13
2023-03-22T03:44:25.945Z,20.83
2023-03-22T03:47:32.596Z,21.67
2023-03-22T03:50:38.873Z,19.67
2023-03-22T03:53:42.708Z,20.30
2023-03-22T03:56:48.214Z,20.73
2023-03-22T03:59:53.186Z,19.95
2023-03-22T04:02:56.758Z,19.98
2023-03-22T04:06:01.220Z,22.10
2023-03-22T04:09:06.023Z,21.40
2023-03-22T04:12:11.146Z,19.70
2023-03-22T04:15:16.612Z,20.85
2023-03-22T04:18:22.608Z,20.20
2023-03-22T04:21:26.698Z,20.83
2023-03-22T04:24:30.736Z,20.48
2023-03-22T04:27:34.215Z,21.55
2023-03-22T04:30:39.616Z,21.05
2023-03-22T04:33:47.249Z,20.25
2023-03-22T04:36:52.175Z,18.30
2023-03-22T04:39:56.080Z,20.40
2023-03-22T04:43:04.436Z,20.15
2023-03-22T04:46:12.713Z,19.30
2023-03-22T04:49:16.323Z,19.90
2023-03-22T04:52:19.894Z,20.92
2023-03-22T04:55:23.848Z,20.48
2023-03-22T04:58:27.987Z,21.25
2023-03-22T05:01:33.897Z,19.80
2023-03-22T05:04:37.739Z,20.67
2023-03-22T05:07:41.836Z,20.10
2023-03-22T05:10:45.936Z,20.05
2023-03-22T05:16:54.941Z,18.67
2023-03-22T05:19:58.590Z,19.10
2023-03-22T05:23:04.653Z,19.70
2023-03-22T05:26:10.450Z,19.50
2023-03-22T05:29:14.308Z,18.55
2023-03-22T05:32:19.854Z,19.15
2023-03-22T05:35:24.134Z,18.67
2023-03-22T05:38:29.345Z,18.80
2023-03-22T05:41:36.352Z,17.98
2023-03-22T05:44:40.491Z,18.10
2023-03-22T05:47:46.833Z,18.63
2023-03-22T05:50:50.728Z,17.50
2023-03-22T05:53:54.963Z,19.02
2023-03-22T05:56:58.436Z,17.58
2023-03-22T06:00:02.981Z,18.10
2023-03-22T06:03:08.303Z,17.58
2023-03-22T06:06:12.475Z,18.20
2023-03-22T06:12:24.967Z,16.13
2023-03-22T06:15:28.751Z,16.25
2023-03-22T06:18:34.461Z,18.40
2023-03-22T06:21:38.024Z,18.33
2023-03-22T06:24:42.553Z,18.05
2023-03-22T06:27:46.332Z,16.88
2023-03-22T06:30:50.738Z,16.98
2023-03-22T06:33:56.667Z,15.93
2023-03-22T06:37:01.573Z,17.05
2023-03-22T06:40:07.003Z,15.55
2023-03-22T06:43:10.609Z,16.33
2023-03-22T06:46:14.490Z,15.88
2023-03-22T06:49:19.959Z,15.98
2023-03-22T06:52:24.279Z,15.55
2023-03-22T06:55:28.320Z,15.95
2023-03-22T06:58:32.219Z,15.20
2023-03-22T07:01:36.408Z,15.85
2023-03-22T07:07:47.631Z,13.57
2023-03-22T07:10:53.380Z,14.75
2023-03-22T07:13:57.231Z,15.75
2023-03-22T07:17:00.801Z,14.05
2023-03-22T07:20:07.218Z,14.05
2023-03-22T07:23:11.712Z,15.77
2023-03-22T07:26:16.109Z,14.85
2023-03-22T07:32:23.306Z,14.00
2023-03-22T07:35:28.500Z,15.60
2023-03-22T07:38:32.868Z,14.60
2023-03-22T07:41:36.718Z,13.65
2023-03-22T07:44:40.216Z,13.60
2023-03-22T07:47:44.520Z,13.50
2023-03-22T07:50:49.985Z,14.48
2023-03-22T07:53:53.717Z,13.98
2023-03-22T07:56:58.195Z,12.48
2023-03-22T08:00:02.504Z,13.52
2023-03-22T08:03:06.563Z,13.27
2023-03-22T08:06:12.475Z,13.13
2023-03-22T08:09:16.753Z,12.45
2023-03-22T08:12:21.978Z,14.05
2023-03-22T08:15:25.949Z,13.40
2023-03-22T08:18:29.493Z,13.15
2023-03-22T08:21:34.829Z,12.13
2023-03-22T08:24:39.454Z,12.88
2023-03-22T08:27:43.701Z,12.52
2023-03-22T08:33:53.485Z,12.30
2023-03-22T08:36:59.212Z,12.30
2023-03-22T08:40:06.548Z,12.88
2023-03-22T08:43:10.483Z,13.63
2023-03-22T08:46:14.080Z,13.98
2023-03-22T08:49:18.222Z,13.40
2023-03-22T08:52:23.458Z,13.77
2023-03-22T08:55:27.342Z,13.23
2023-03-22T08:58:30.989Z,12.75
2023-03-22T09:01:35.615Z,13.05
2023-03-22T09:04:40.040Z,12.65
2023-03-22T09:07:45.857Z,12.20
2023-03-22T09:10:51.985Z,11.68
2023-03-22T09:13:55.842Z,12.20
2023-03-22T09:17:00.271Z,11.02
2023-03-22T09:20:12.483Z,11.50
2023-03-22T09:23:20.840Z,11.35
2023-03-22T09:26:25.757Z,10.93
2023-03-22T09:29:29.382Z,11.73
2023-03-22T09:32:33.733Z,11.00
2023-03-22T09:35:41.614Z,10.43
2023-03-22T09:38:47.493Z,10.60
2023-03-22T09:41:56.620Z,10.18
2023-03-22T09:45:04.731Z,11.00
2023-03-22T09:48:18.223Z,10.65
2023-03-22T09:51:40.489Z,10.33
2023-03-22T09:54:50.411Z,9.50
2023-03-22T09:58:07.408Z,9.50
2023-03-22T10:01:23.729Z,9.52
2023-03-22T10:04:57.677Z,9.80
2023-03-22T10:08:19.444Z,8.45
2023-03-22T10:11:41.128Z,10.13
2023-03-22T10:14:51.862Z,9.15
2023-03-22T10:18:00.981Z,9.35
2023-03-22T10:21:08.466Z,9.45
2023-03-22T10:24:19.397Z,9.02
2023-03-22T10:27:28.240Z,9.50
2023-03-22T10:30:41.283Z,9.30
2023-03-22T10:33:56.974Z,8.80
2023-03-22T10:37:05.673Z,8.23
2023-03-22T10:40:19.734Z,8.50
2023-03-22T10:43:32.700Z,8.45
2023-03-22T10:46:41.290Z,8.02
2023-03-22T10:49:53.384Z,7.55
2023-03-22T10:53:06.229Z,8.02
2023-03-22T10:56:16.745Z,8.07
2023-03-22T10:59:51.779Z,7.05
2023-03-22T11:06:10.981Z,6.97
2023-03-22T11:09:18.991Z,6.97
2023-03-22T11:12:24.485Z,7.75
2023-03-22T11:15:33.311Z,6.95
2023-03-22T11:18:37.822Z,7.07
2023-03-22T11:21:45.076Z,6.57
2023-03-22T11:24:49.503Z,6.72
2023-03-22T11:27:57.339Z,7.55
2023-03-22T11:31:08.492Z,6.97
2023-03-22T11:34:20.353Z,5.95
2023-03-22T11:37:24.461Z,6.25
2023-03-22T11:40:31.600Z,6.15
2023-03-22T11:43:40.989Z,6.65
2023-03-22T11:46:57.862Z,6.47
2023-03-22T11:50:09.437Z,6.07
2023-03-22T11:53:18.602Z,6.55
2023-03-22T11:56:30.215Z,5.85
2023-03-22T11:59:41.967Z,6.07
2023-03-22T12:02:53.958Z,5.78
2023-03-22T12:06:04.531Z,5.20
2023-03-22T12:09:23.744Z,5.45
2023-03-22T12:12:33.073Z,4.93
2023-03-22T12:15:48.819Z,4.95
2023-03-22T12:19:08.247Z,4.88
2023-03-22T12:22:19.578Z,5.25
2023-03-22T12:25:30.725Z,5.90
2023-03-22T12:28:43.140Z,5.72
2023-03-22T12:32:02.488Z,6.22
2023-03-22T12:35:18.497Z,6.63
2023-03-22T12:38:36.380Z,6.50
2023-03-22T12:41:45.255Z,6.15
2023-03-22T12:45:04.058Z,7.10
2023-03-22T12:48:18.737Z,7.35
2023-03-22T12:51:25.964Z,7.00
2023-03-22T12:54:30.350Z,6.50
2023-03-22T12:57:34.973Z,6.75
2023-03-22T13:00:46.179Z,7.22
2023-03-22T13:03:53.971Z,7.68
2023-03-22T13:07:12.520Z,7.35
2023-03-22T13:11:00.380Z,7.35
2023-03-22T13:14:05.010Z,8.20
2023-03-22T13:17:08.817Z,9.10
2023-03-22T13:20:28.992Z,8.15
2023-03-22T13:23:34.232Z,8.13
2023-03-22T13:26:45.828Z,7.90
2023-03-22T13:29:54.232Z,8.48
2023-03-22T13:33:04.378Z,7.75
2023-03-22T13:36:25.255Z,7.85
2023-03-22T13:39:36.914Z,7.97
2023-03-22T13:42:42.963Z,9.25
2023-03-22T13:46:08.183Z,8.57
2023-03-22T13:49:29.923Z,8.05
2023-03-22T13:52:41.515Z,8.15
2023-03-22T13:56:05.476Z,7.90
2023-03-22T13:59:14.422Z,7.85
2023-03-22T14:02:26.252Z,7.75
2023-03-22T14:05:36.564Z,8.77
2023-03-22T14:08:45.135Z,8.57
2023-03-22T14:11:57.382Z,8.88
2023-03-22T14:15:06.329Z,8.00
2023-03-22T14:18:18.057Z,9.55
2023-03-22T14:21:34.609Z,7.70
